Time;durP1;ratioP1;P1;durP2;ratioP2;P2;SDS_P1;SDS_P2;PMS_P1;PMS_P2;Temp;Humidity;BMP_temperature;BMP_pressure;BME280_temperature;BME280_humidity;BME280_pressure;Samples;Min_cycle;Max_cycle;Signal;HPM_P1;HPM_P2
2022/08/30 00:01:56;;;;;;;3.50;1.95;;;20.20;94.50;;;;;;4176565;28;20048;-65
2022/08/30 00:03:58;;;;;;;5.15;2.38;;;20.10;94.70;;;;;;4178251;28;20087;-65
2022/08/30 00:05:59;;;;;;;4.22;1.90;;;20.00;94.90;;;;;;4176203;28;20033;-65
2022/08/30 00:08:00;;;;;;;6.63;2.60;;;20.10;95.10;;;;;;4177834;28;20117;-65
2022/08/30 00:10:01;;;;;;;3.63;1.98;;;19.90;95.30;;;;;;4177569;28;20033;-65
2022/08/30 00:12:03;;;;;;;5.75;2.58;;;20.00;95.50;;;;;;4175242;28;20029;-66
2022/08/30 00:14:03;;;;;;;5.88;2.05;;;19.90;95.60;;;;;;4178159;28;20519;-66
2022/08/30 00:16:05;;;;;;;2.85;1.73;;;19.90;95.70;;;;;;4177072;28;20037;-65
2022/08/30 00:18:06;;;;;;;4.37;2.07;;;20.00;95.80;;;;;;4176898;28;20055;-66
2022/08/30 00:20:11;;;;;;;3.38;1.80;;;20.00;95.90;;;;;;4175441;28;20037;-65
2022/08/30 00:22:12;;;;;;;6.07;1.88;;;20.00;95.80;;;;;;4179361;28;20041;-65
2022/08/30 00:24:12;;;;;;;2.65;1.48;;;20.10;95.90;;;;;;4174890;28;20055;-65
2022/08/30 00:26:13;;;;;;;5.50;1.88;;;20.10;95.90;;;;;;4177394;28;20036;-65
2022/08/30 00:28:15;;;;;;;3.03;1.60;;;20.10;96.00;;;;;;4176997;28;20034;-65
2022/08/30 00:30:17;;;;;;;4.18;1.80;;;20.00;96.00;;;;;;4174188;28;20037;-65
2022/08/30 00:32:20;;;;;;;3.92;2.05;;;20.00;96.10;;;;;;4174574;28;20047;-64
2022/08/30 00:34:20;;;;;;;2.70;1.85;;;19.90;96.40;;;;;;4177241;28;20043;-65
2022/08/30 00:36:21;;;;;;;2.55;1.77;;;19.90;96.50;;;;;;4176234;28;20061;-65
2022/08/30 00:38:23;;;;;;;2.90;1.63;;;19.90;96.60;;;;;;4177098;28;20410;-65
2022/08/30 00:40:24;;;;;;;2.75;1.70;;;19.90;96.50;;;;;;4175785;28;20044;-65
2022/08/30 00:42:25;;;;;;;2.80;1.70;;;19.90;96.70;;;;;;4173804;28;20036;-65
2022/08/30 00:44:25;;;;;;;2.65;1.80;;;20.00;97.30;;;;;;4175281;28;20490;-65
2022/08/30 00:46:26;;;;;;;4.35;1.75;;;20.00;97.00;;;;;;4174092;28;20064;-64
2022/08/30 00:48:26;;;;;;;3.60;1.80;;;19.90;96.80;;;;;;4175295;28;20041;-65
2022/08/30 00:50:32;;;;;;;4.47;1.52;;;19.90;97.00;;;;;;4176020;28;20033;-65
2022/08/30 00:52:35;;;;;;;4.05;1.70;;;19.80;97.10;;;;;;4177123;28;20044;-65
2022/08/30 00:54:37;;;;;;;2.80;1.75;;;19.90;97.40;;;;;;4177107;28;20047;-66
2022/08/30 00:56:38;;;;;;;2.22;1.33;;;19.80;97.50;;;;;;4176584;28;20078;-64
2022/08/30 00:58:47;;;;;;;4.50;1.75;;;19.80;97.50;;;;;;4177179;28;20037;-65
2022/08/30 01:00:50;;;;;;;2.42;1.40;;;19.80;97.70;;;;;;4178050;28;20029;-65
2022/08/30 01:02:51;;;;;;;2.30;1.40;;;19.80;97.90;;;;;;4173013;28;20386;-65
2022/08/30 01:04:54;;;;;;;2.45;1.40;;;19.80;97.90;;;;;;4177935;28;20048;-65
2022/08/30 01:06:56;;;;;;;3.97;1.50;;;19.80;97.80;;;;;;4177106;28;20029;-65
2022/08/30 01:08:56;;;;;;;3.88;1.65;;;19.80;98.00;;;;;;4177133;28;20040;-65
2022/08/30 01:10:58;;;;;;;2.03;1.23;;;19.90;98.00;;;;;;4177019;28;20087;-66
2022/08/30 01:12:59;;;;;;;3.63;1.30;;;19.90;98.00;;;;;;4178113;28;20082;-67
2022/08/30 01:15:00;;;;;;;2.60;1.63;;;20.00;98.50;;;;;;4177835;28;20036;-65
2022/08/30 01:17:02;;;;;;;2.17;1.60;;;20.00;97.60;;;;;;4175818;28;20028;-65
2022/08/30 01:19:05;;;;;;;3.15;1.75;;;20.00;97.60;;;;;;4176837;28;20039;-68
2022/08/30 01:21:23;;;;;;;4.30;1.90;;;20.00;97.70;;;;;;4175611;28;20033;-65
2022/08/30 01:23:25;;;;;;;3.80;1.90;;;19.80;97.90;;;;;;4179704;28;20041;-65
2022/08/30 01:25:29;;;;;;;7.47;2.40;;;19.80;98.10;;;;;;4177153;28;20045;-65
2022/08/30 01:27:30;;;;;;;2.47;1.77;;;19.80;98.20;;;;;;4177033;28;20327;-65
2022/08/30 01:29:31;;;;;;;2.15;1.63;;;19.80;98.30;;;;;;4176293;28;20382;-65
2022/08/30 01:31:35;;;;;;;3.53;1.50;;;19.90;98.10;;;;;;4176952;28;20035;-65
2022/08/30 01:33:37;;;;;;;2.20;1.50;;;19.90;98.10;;;;;;4176685;28;20082;-66
2022/08/30 01:35:56;;;;;;;3.40;1.50;;;19.80;98.20;;;;;;4176880;28;20033;-65
2022/08/30 01:37:57;;;;;;;3.22;1.63;;;19.90;98.10;;;;;;4177263;28;20193;-65
2022/08/30 01:39:58;;;;;;;2.40;1.30;;;19.90;97.90;;;;;;4176672;28;20052;-65
2022/08/30 01:42:00;;;;;;;2.53;1.52;;;19.90;98.00;;;;;;4175192;28;20049;-65
2022/08/30 01:44:06;;;;;;;1.30;1.17;;;19.90;97.90;;;;;;4177103;28;20025;-65
2022/08/30 01:46:09;;;;;;;2.42;1.60;;;20.00;97.90;;;;;;4176266;28;20450;-65
2022/08/30 01:48:11;;;;;;;1.95;1.52;;;20.00;97.90;;;;;;4177935;28;20539;-65
2022/08/30 01:50:12;;;;;;;1.38;1.27;;;20.00;97.80;;;;;;4180577;28;20420;-65
2022/08/30 01:52:13;;;;;;;2.78;1.50;;;20.00;97.70;;;;;;4177063;28;20025;-65
2022/08/30 01:54:14;;;;;;;2.08;1.42;;;20.00;98.50;;;;;;4176931;28;20398;-65
2022/08/30 01:56:15;;;;;;;1.55;1.10;;;20.00;98.30;;;;;;4176713;28;20033;-65
2022/08/30 01:58:15;;;;;;;2.45;1.50;;;20.10;98.20;;;;;;4177370;28;20032;-65
2022/08/30 02:00:17;;;;;;;2.33;1.52;;;20.10;97.80;;;;;;4176550;28;20515;-65
2022/08/30 02:02:24;;;;;;;1.92;1.33;;;20.10;97.50;;;;;;4177350;28;20120;-65
2022/08/30 02:04:25;;;;;;;2.20;1.27;;;20.10;97.70;;;;;;4177265;28;20040;-65
2022/08/30 02:06:26;;;;;;;2.00;1.38;;;20.00;97.70;;;;;;4176290;28;20429;-65
2022/08/30 02:08:27;;;;;;;1.40;0.90;;;20.00;97.90;;;;;;4176478;28;20056;-65
2022/08/30 02:10:28;;;;;;;2.10;1.27;;;20.00;97.70;;;;;;4176372;28;20033;-66
2022/08/30 02:12:29;;;;;;;1.90;1.30;;;20.10;97.70;;;;;;4176527;28;20041;-65
2022/08/30 02:14:29;;;;;;;4.78;1.50;;;20.00;97.80;;;;;;4176038;28;20567;-66
2022/08/30 02:16:30;;;;;;;3.30;1.48;;;20.00;97.90;;;;;;4176318;28;20029;-67
2022/08/30 02:18:32;;;;;;;1.98;1.35;;;19.80;98.20;;;;;;4177092;28;20037;-65
2022/08/30 02:20:33;;;;;;;2.95;1.60;;;19.80;98.40;;;;;;4158118;28;20033;-66
2022/08/30 02:22:33;;;;;;;2.60;1.30;;;19.80;98.60;;;;;;4177081;28;20029;-65
2022/08/30 02:24:34;;;;;;;2.17;1.50;;;19.70;98.70;;;;;;4177487;28;20032;-67
2022/08/30 02:26:35;;;;;;;2.45;1.75;;;19.70;98.80;;;;;;4176204;28;20044;-64
2022/08/30 02:28:36;;;;;;;2.03;1.25;;;19.70;98.90;;;;;;4176640;28;20068;-66
2022/08/30 02:30:37;;;;;;;2.65;1.30;;;19.60;99.00;;;;;;4174840;28;20093;-65
2022/08/30 02:32:37;;;;;;;1.33;1.20;;;19.60;99.00;;;;;;4178224;28;20029;-65
2022/08/30 02:34:38;;;;;;;1.70;1.20;;;19.60;99.20;;;;;;4176671;28;20044;-65
2022/08/30 02:36:42;;;;;;;3.33;1.52;;;19.50;99.20;;;;;;4175960;28;20025;-66
2022/08/30 02:38:42;;;;;;;2.20;1.33;;;19.50;99.40;;;;;;4176636;28;20036;-66
2022/08/30 02:40:43;;;;;;;4.28;1.70;;;19.40;99.60;;;;;;4179029;28;20482;-65
2022/08/30 02:42:44;;;;;;;3.88;1.33;;;19.40;99.70;;;;;;4177019;28;20030;-66
2022/08/30 02:44:45;;;;;;;2.35;1.30;;;19.40;99.70;;;;;;4184243;28;20088;-67
2022/08/30 02:46:46;;;;;;;1.40;1.00;;;19.40;99.90;;;;;;4179996;28;20041;-68
2022/08/30 02:48:47;;;;;;;2.13;1.30;;;19.40;99.80;;;;;;4200418;28;20021;-67
2022/08/30 02:50:50;;;;;;;1.98;1.40;;;19.50;99.90;;;;;;4196406;28;20275;-68
2022/08/30 02:52:51;;;;;;;1.92;1.48;;;19.40;99.80;;;;;;4200015;28;20044;-70
2022/08/30 02:54:52;;;;;;;1.85;1.30;;;19.40;99.90;;;;;;4197667;28;20060;-69
2022/08/30 02:56:54;;;;;;;1.90;1.02;;;19.30;99.90;;;;;;4176871;28;20040;-67
2022/08/30 02:58:55;;;;;;;1.52;1.25;;;19.40;99.90;;;;;;4173859;28;20582;-67
2022/08/30 03:00:55;;;;;;;2.40;1.60;;;19.30;99.90;;;;;;4174192;28;20025;-67
2022/08/30 03:02:56;;;;;;;1.40;1.10;;;19.30;99.90;;;;;;4178499;28;20447;-67
2022/08/30 03:04:57;;;;;;;2.63;1.55;;;19.30;99.90;;;;;;4179198;28;20033;-67
2022/08/30 03:06:58;;;;;;;1.88;1.25;;;19.30;99.90;;;;;;4178153;28;20059;-67
2022/08/30 03:08:58;;;;;;;2.17;1.20;;;19.30;99.90;;;;;;4176831;28;20033;-67
2022/08/30 03:11:01;;;;;;;1.52;1.10;;;19.30;99.90;;;;;;4177895;28;20056;-67
2022/08/30 03:13:02;;;;;;;1.65;1.23;;;19.40;99.90;;;;;;4178605;28;20033;-67
2022/08/30 03:15:05;;;;;;;1.58;1.23;;;19.40;99.90;;;;;;4178567;28;20498;-67
2022/08/30 03:17:06;;;;;;;;;;;19.50;99.90;;;;;;4178047;28;20099;-67
2022/08/30 03:19:06;;;;;;;1.13;0.90;;;19.50;99.90;;;;;;4178087;28;19909;-67
2022/08/30 03:21:13;;;;;;;2.15;1.48;;;19.50;99.90;;;;;;4177676;28;20028;-67
2022/08/30 03:23:14;;;;;;;2.67;1.58;;;19.50;99.90;;;;;;4178782;28;20029;-67
2022/08/30 03:25:15;;;;;;;2.47;1.40;;;19.50;99.90;;;;;;4178490;28;20033;-67
2022/08/30 03:27:16;;;;;;;1.98;1.45;;;19.50;99.90;;;;;;4181282;28;20451;-67
2022/08/30 03:29:16;;;;;;;2.92;1.48;;;19.30;99.90;;;;;;4176059;28;20033;-67
2022/08/30 03:31:17;;;;;;;2.88;1.60;;;19.40;99.90;;;;;;4177854;28;20032;-67
2022/08/30 03:33:17;;;;;;;2.22;1.30;;;19.30;99.90;;;;;;4179060;28;20111;-67
2022/08/30 03:35:18;;;;;;;2.38;1.30;;;19.30;99.90;;;;;;4177058;28;20041;-67
2022/08/30 03:37:19;;;;;;;2.67;1.50;;;19.30;99.90;;;;;;4177335;28;20036;-67
2022/08/30 03:39:21;;;;;;;1.40;1.30;;;19.30;99.90;;;;;;4178157;28;20033;-67
2022/08/30 03:41:23;;;;;;;1.95;1.48;;;19.30;99.90;;;;;;4177459;28;20033;-67
2022/08/30 03:43:24;;;;;;;1.35;1.20;;;19.30;99.90;;;;;;4178538;28;20025;-67
2022/08/30 03:45:24;;;;;;;1.63;1.40;;;19.40;99.90;;;;;;4177066;28;20044;-67
2022/08/30 03:47:25;;;;;;;2.08;1.35;;;19.30;99.90;;;;;;4178588;28;20370;-67
2022/08/30 03:49:25;;;;;;;2.17;1.20;;;19.30;99.90;;;;;;4176430;28;20124;-67
2022/08/30 03:51:26;;;;;;;1.58;1.10;;;19.40;99.90;;;;;;4175528;28;20082;-67
2022/08/30 03:53:27;;;;;;;2.47;1.45;;;19.30;99.90;;;;;;4178609;28;20029;-67
2022/08/30 03:55:29;;;;;;;1.90;1.25;;;19.30;99.90;;;;;;4180997;28;20047;-67
2022/08/30 03:57:31;;;;;;;2.25;1.70;;;19.30;99.90;;;;;;4178464;28;20033;-67
2022/08/30 03:59:32;;;;;;;2.45;1.70;;;19.20;99.90;;;;;;4175528;28;20075;-67
2022/08/30 04:01:32;;;;;;;1.92;1.50;;;19.10;99.90;;;;;;4176723;28;20564;-67
2022/08/30 04:03:34;;;;;;;1.30;1.20;;;19.00;99.90;;;;;;4178142;28;20048;-67
2022/08/30 04:05:35;;;;;;;1.88;1.55;;;19.00;99.90;;;;;;4179612;28;20049;-67
2022/08/30 04:07:35;;;;;;;2.05;1.48;;;19.00;99.90;;;;;;4178210;28;20103;-67
2022/08/30 04:09:36;;;;;;;2.72;1.55;;;19.00;99.90;;;;;;4177465;28;20090;-67
2022/08/30 04:11:37;;;;;;;2.67;1.42;;;19.00;99.90;;;;;;4177803;28;20161;-67
2022/08/30 04:13:37;;;;;;;1.70;1.20;;;19.00;99.90;;;;;;4178798;28;20379;-67
2022/08/30 04:15:38;;;;;;;2.47;1.42;;;19.10;99.90;;;;;;4175896;28;20455;-67
2022/08/30 04:17:39;;;;;;;1.50;1.40;;;19.10;99.90;;;;;;4175178;28;20494;-67
2022/08/30 04:19:39;;;;;;;1.77;1.30;;;19.10;99.90;;;;;;4176324;28;20041;-67
2022/08/30 04:21:40;;;;;;;2.28;1.27;;;19.00;99.90;;;;;;4176526;28;20078;-67
2022/08/30 04:23:42;;;;;;;1.92;1.50;;;19.00;99.90;;;;;;4176540;28;20441;-67
2022/08/30 04:25:43;;;;;;;2.13;1.67;;;19.00;99.90;;;;;;4175809;28;20086;-67
2022/08/30 04:27:45;;;;;;;2.85;1.30;;;19.00;99.90;;;;;;4175466;28;20509;-67
2022/08/30 04:29:46;;;;;;;2.15;1.63;;;19.00;99.90;;;;;;4177282;28;20115;-67
2022/08/30 04:31:47;;;;;;;1.75;1.55;;;19.00;99.90;;;;;;4177076;28;20490;-67
2022/08/30 04:33:49;;;;;;;1.75;1.60;;;18.90;99.90;;;;;;4176706;28;20806;-67
2022/08/30 04:35:49;;;;;;;2.20;1.50;;;18.90;99.90;;;;;;4175766;28;20033;-67
2022/08/30 04:37:50;;;;;;;4.15;1.73;;;18.70;99.90;;;;;;4174557;28;20028;-67
2022/08/30 04:39:55;;;;;;;11.35;1.70;;;18.70;99.90;;;;;;4174377;28;20561;-67
2022/08/30 04:41:56;;;;;;;2.25;1.58;;;18.60;99.90;;;;;;4177070;28;20379;-67
2022/08/30 04:43:57;;;;;;;2.70;1.80;;;18.60;99.90;;;;;;4177680;28;20033;-67
2022/08/30 04:45:57;;;;;;;2.15;1.80;;;18.60;99.90;;;;;;4177041;28;20043;-67
2022/08/30 04:47:58;;;;;;;4.38;1.45;;;18.60;99.90;;;;;;4179232;28;20252;-67
2022/08/30 04:49:58;;;;;;;2.40;1.38;;;18.60;99.90;;;;;;4156911;28;20025;-67
2022/08/30 04:51:59;;;;;;;2.03;1.60;;;18.70;99.90;;;;;;4175583;28;20039;-67
2022/08/30 04:54:00;;;;;;;1.75;1.35;;;18.80;99.90;;;;;;4173671;28;20050;-67
2022/08/30 04:56:05;;;;;;;2.53;1.98;;;18.70;99.90;;;;;;4175744;28;20041;-67
2022/08/30 04:58:06;;;;;;;1.75;1.60;;;18.80;99.90;;;;;;4176866;28;20032;-67
2022/08/30 05:00:10;;;;;;;2.05;1.40;;;18.80;99.90;;;;;;4175302;28;20028;-67
2022/08/30 05:02:11;;;;;;;2.30;1.73;;;18.80;99.90;;;;;;4175511;28;20038;-67
2022/08/30 05:04:12;;;;;;;2.03;1.63;;;18.70;99.90;;;;;;4175751;28;20496;-67
2022/08/30 05:06:14;;;;;;;2.38;1.83;;;18.60;99.90;;;;;;4176521;28;20033;-67
2022/08/30 05:08:19;;;;;;;2.20;1.55;;;18.60;99.90;;;;;;4172487;28;20040;-67
2022/08/30 05:10:20;;;;;;;3.00;1.80;;;18.60;99.90;;;;;;4175882;28;20036;-67
2022/08/30 05:12:21;;;;;;;3.78;1.98;;;18.60;99.90;;;;;;4176328;28;20224;-67
2022/08/30 05:14:21;;;;;;;3.63;2.00;;;18.60;99.90;;;;;;4175020;28;21304;-67
2022/08/30 05:16:22;;;;;;;3.67;1.85;;;18.60;99.90;;;;;;4175027;28;20076;-67
2022/08/30 05:18:22;;;;;;;3.20;1.77;;;18.50;99.90;;;;;;4176281;28;20032;-67
2022/08/30 05:20:23;;;;;;;1.77;1.60;;;18.50;99.90;;;;;;4174866;28;20493;-67
2022/08/30 05:22:24;;;;;;;4.20;2.08;;;18.60;99.90;;;;;;4170938;28;20589;-67
2022/08/30 05:24:25;;;;;;;2.42;1.77;;;18.60;99.90;;;;;;4175853;28;20112;-66
2022/08/30 05:26:29;;;;;;;4.78;2.33;;;18.60;99.90;;;;;;4170670;28;20037;-66
2022/08/30 05:28:29;;;;;;;2.95;1.83;;;18.60;99.90;;;;;;4168202;28;20435;-66
2022/08/30 05:30:32;;;;;;;3.05;2.10;;;18.60;99.90;;;;;;4174373;28;20037;-67
2022/08/30 05:32:33;;;;;;;2.33;1.73;;;18.50;99.90;;;;;;4173012;28;20025;-66
2022/08/30 05:34:34;;;;;;;2.40;1.80;;;18.50;99.90;;;;;;4162016;28;20249;-65
2022/08/30 05:36:36;;;;;;;2.13;1.85;;;18.60;99.90;;;;;;4172375;28;20123;-66
2022/08/30 05:38:37;;;;;;;2.55;1.85;;;18.50;99.90;;;;;;4188265;28;20060;-66
2022/08/30 05:40:41;;;;;;;2.78;2.10;;;18.50;99.90;;;;;;4173686;28;20028;-66
2022/08/30 05:42:43;;;;;;;2.85;1.98;;;18.50;99.90;;;;;;4172050;28;20041;-66
2022/08/30 05:44:44;;;;;;;4.97;1.90;;;18.50;99.90;;;;;;4174961;28;20032;-66
2022/08/30 05:46:46;;;;;;;3.28;1.80;;;18.50;99.90;;;;;;4175880;28;20055;-66
2022/08/30 05:48:48;;;;;;;2.63;1.80;;;18.50;99.90;;;;;;4174216;28;20090;-66
2022/08/30 05:50:49;;;;;;;2.10;1.80;;;18.50;99.90;;;;;;4172007;28;20048;-66
2022/08/30 05:52:49;;;;;;;3.88;2.47;;;18.50;99.90;;;;;;4172732;28;20080;-66
2022/08/30 05:54:53;;;;;;;4.03;2.20;;;18.50;99.90;;;;;;4170262;28;20381;-66
2022/08/30 05:56:53;;;;;;;3.88;2.10;;;18.50;99.90;;;;;;4171291;28;20425;-66
2022/08/30 05:58:54;;;;;;;2.38;1.88;;;18.50;99.90;;;;;;4172019;28;20037;-66
2022/08/30 06:00:55;;;;;;;4.50;2.30;;;18.50;99.90;;;;;;4171292;28;20043;-67
2022/08/30 06:02:55;;;;;;;3.72;1.90;;;18.50;99.90;;;;;;4172790;28;20545;-66
2022/08/30 06:04:56;;;;;;;5.85;2.53;;;18.50;99.90;;;;;;4172597;28;20044;-66
2022/08/30 06:06:56;;;;;;;3.90;2.30;;;18.40;99.90;;;;;;4171029;28;20041;-66
2022/08/30 06:08:57;;;;;;;4.90;2.40;;;18.30;99.90;;;;;;4171557;28;20052;-66
2022/08/30 06:10:58;;;;;;;1.77;1.67;;;18.30;99.90;;;;;;4170330;28;20052;-66
2022/08/30 06:12:58;;;;;;;3.92;2.20;;;18.40;99.90;;;;;;4172350;28;20099;-66
2022/08/30 06:14:59;;;;;;;3.10;2.28;;;18.50;99.90;;;;;;4173314;28;20120;-66
2022/08/30 06:16:59;;;;;;;3.50;2.00;;;18.60;99.90;;;;;;4173991;28;20028;-66
2022/08/30 06:19:00;;;;;;;5.25;2.33;;;18.60;99.90;;;;;;4173982;28;20497;-66
2022/08/30 06:21:02;;;;;;;4.63;2.38;;;18.70;99.90;;;;;;4171573;28;20048;-66
2022/08/30 06:23:02;;;;;;;3.20;2.50;;;18.60;99.90;;;;;;4172559;28;20486;-66
2022/08/30 06:25:03;;;;;;;3.00;2.38;;;18.60;99.90;;;;;;4172046;28;20041;-66
2022/08/30 06:27:04;;;;;;;5.60;2.30;;;18.60;99.90;;;;;;4173488;28;20033;-66
2022/08/30 06:29:05;;;;;;;5.07;2.50;;;18.60;99.90;;;;;;4172478;28;20060;-66
2022/08/30 06:31:11;;;;;;;3.90;2.53;;;18.60;99.90;;;;;;4154363;28;20037;-66
2022/08/30 06:33:12;;;;;;;4.90;2.92;;;18.60;99.90;;;;;;4172533;28;20111;-66
2022/08/30 06:35:12;;;;;;;4.68;2.47;;;18.60;99.90;;;;;;4172329;28;20053;-66
2022/08/30 06:37:13;;;;;;;4.75;2.60;;;18.60;99.90;;;;;;4173387;28;20393;-66
2022/08/30 06:39:14;;;;;;;4.05;2.50;;;18.60;99.90;;;;;;4175188;28;20442;-66
2022/08/30 06:41:18;;;;;;;4.85;2.30;;;18.60;99.90;;;;;;4173377;28;20067;-66
2022/08/30 06:43:18;;;;;;;4.93;2.70;;;18.70;99.90;;;;;;4177241;28;20025;-66
2022/08/30 06:45:20;;;;;;;5.72;2.38;;;18.80;99.90;;;;;;4173942;28;20033;-66
2022/08/30 06:47:20;;;;;;;5.10;2.47;;;18.90;99.90;;;;;;4172952;28;20040;-66
2022/08/30 06:49:21;;;;;;;5.22;2.80;;;19.00;99.90;;;;;;4173513;28;20029;-66
2022/08/30 06:51:25;;;;;;;7.95;3.25;;;19.10;99.90;;;;;;4169892;28;20040;-66
2022/08/30 06:53:28;;;;;;;5.50;2.70;;;19.40;99.90;;;;;;4175305;28;20029;-66
2022/08/30 06:55:32;;;;;;;3.97;2.47;;;19.60;99.90;;;;;;4174425;28;20431;-66
2022/08/30 06:57:32;;;;;;;5.57;2.90;;;19.70;99.90;;;;;;4175056;28;20041;-67
2022/08/30 06:59:33;;;;;;;5.70;2.70;;;20.00;99.90;;;;;;4173951;28;20044;-66
2022/08/30 07:01:33;;;;;;;4.10;2.25;;;20.20;99.90;;;;;;4172351;28;20037;-66
2022/08/30 07:03:34;;;;;;;4.72;2.53;;;20.40;99.90;;;;;;4175856;28;20544;-66
2022/08/30 07:05:35;;;;;;;6.18;3.13;;;20.70;99.90;;;;;;4174283;28;20029;-66
2022/08/30 07:07:35;;;;;;;5.25;2.58;;;20.80;99.90;;;;;;4176379;28;20041;-66
2022/08/30 07:09:41;;;;;;;6.60;2.85;;;20.90;99.90;;;;;;4175711;28;20037;-66
2022/08/30 07:11:43;;;;;;;5.22;3.10;;;21.10;99.90;;;;;;4173558;28;20047;-66
2022/08/30 07:13:44;;;;;;;7.22;3.03;;;21.10;99.90;;;;;;4175820;28;20608;-67
2022/08/30 07:15:45;;;;;;;4.85;2.60;;;21.00;99.90;;;;;;4157161;28;20091;-67
2022/08/30 07:20:05;;;;;;;3.20;2.28;;;21.40;99.80;;;;;;4173988;28;20086;-67
2022/08/30 07:22:06;;;;;;;5.03;2.60;;;21.50;99.20;;;;;;4173463;28;20048;-66
2022/08/30 07:24:08;;;;;;;5.18;2.78;;;21.50;99.00;;;;;;4176288;28;20033;-67
2022/08/30 07:26:12;;;;;;;3.22;2.15;;;21.50;98.90;;;;;;4174896;28;20064;-66
2022/08/30 07:28:12;;;;;;;5.15;2.22;;;21.60;99.10;;;;;;4176563;28;20029;-67
2022/08/30 07:30:13;;;;;;;7.05;2.60;;;21.70;98.50;;;;;;4173145;28;20598;-67
2022/08/30 07:32:13;;;;;;;8.02;2.90;;;21.70;98.30;;;;;;4172815;28;20505;-67
2022/08/30 07:34:14;;;;;;;4.78;2.10;;;21.80;98.10;;;;;;4173278;28;20041;-67
2022/08/30 07:36:16;;;;;;;4.30;2.53;;;21.90;98.20;;;;;;4173959;28;20063;-66
2022/08/30 07:38:17;;;;;;;2.85;1.90;;;21.90;97.80;;;;;;4175737;28;20115;-66
2022/08/30 07:40:18;;;;;;;5.28;2.30;;;22.00;97.80;;;;;;4172211;28;20566;-67
2022/08/30 07:42:18;;;;;;;3.40;2.10;;;22.20;97.40;;;;;;4174479;28;20112;-67
2022/08/30 07:44:19;;;;;;;5.07;2.53;;;22.20;97.60;;;;;;4173655;28;20025;-66
2022/08/30 07:46:19;;;;;;;4.05;2.20;;;22.20;97.00;;;;;;4174766;28;20056;-66
2022/08/30 07:48:20;;;;;;;6.40;2.13;;;22.20;97.20;;;;;;4175393;28;20029;-66
2022/08/30 07:50:21;;;;;;;2.80;2.00;;;22.20;97.30;;;;;;4172992;28;20478;-66
2022/08/30 07:52:21;;;;;;;4.55;2.17;;;22.10;97.00;;;;;;4174614;28;20096;-67
2022/08/30 07:54:22;;;;;;;3.42;2.20;;;22.20;97.10;;;;;;4174008;28;20520;-67
2022/08/30 07:56:23;;;;;;;4.55;2.20;;;22.30;97.00;;;;;;4173980;28;20029;-67
2022/08/30 07:58:24;;;;;;;5.43;2.40;;;22.20;96.70;;;;;;4174420;28;20033;-67
2022/08/30 08:00:25;;;;;;;3.17;1.90;;;22.30;97.10;;;;;;4173814;28;20036;-67
2022/08/30 08:02:26;;;;;;;4.22;1.90;;;22.40;97.00;;;;;;4172960;28;20107;-67
2022/08/30 08:04:26;;;;;;;5.38;1.92;;;22.50;96.70;;;;;;4174242;28;20035;-67
2022/08/30 08:06:27;;;;;;;4.90;2.60;;;22.50;96.60;;;;;;4173955;28;20472;-67
2022/08/30 08:08:28;;;;;;;6.40;2.33;;;22.40;96.30;;;;;;4175228;28;20452;-67
2022/08/30 08:10:29;;;;;;;4.15;2.60;;;22.40;96.50;;;;;;4173767;28;20401;-67
2022/08/30 08:12:29;;;;;;;3.33;2.00;;;22.50;96.70;;;;;;4174705;28;20040;-67
2022/08/30 08:14:30;;;;;;;4.55;1.80;;;22.60;96.60;;;;;;4174463;28;20455;-67
2022/08/30 08:16:32;;;;;;;4.35;2.05;;;22.70;96.40;;;;;;4174267;28;20053;-67
2022/08/30 08:18:34;;;;;;;3.67;2.33;;;22.60;96.30;;;;;;4174403;28;20217;-67
2022/08/30 08:20:35;;;;;;;5.30;2.67;;;22.50;96.20;;;;;;4171819;28;20577;-66
2022/08/30 08:22:35;;;;;;;4.30;2.28;;;22.40;96.50;;;;;;4174618;28;20033;-67
2022/08/30 08:24:36;;;;;;;3.78;1.90;;;22.30;96.40;;;;;;4175012;28;20496;-67
2022/08/30 08:26:37;;;;;;;4.25;1.80;;;22.30;96.70;;;;;;4173930;28;20041;-67
2022/08/30 08:28:38;;;;;;;3.22;1.50;;;22.40;96.60;;;;;;4174469;28;20045;-67
2022/08/30 08:30:39;;;;;;;5.22;2.03;;;22.40;96.70;;;;;;4173454;28;20398;-67
2022/08/30 08:32:39;;;;;;;2.58;1.55;;;22.30;96.40;;;;;;4174507;28;20434;-66
2022/08/30 08:34:40;;;;;;;4.75;2.20;;;22.30;96.70;;;;;;4174088;28;20041;-66
2022/08/30 08:36:41;;;;;;;5.88;1.90;;;22.10;96.80;;;;;;4172641;28;20052;-66
2022/08/30 08:38:41;;;;;;;3.65;1.67;;;22.10;96.90;;;;;;4173478;28;20037;-66
2022/08/30 08:40:54;;;;;;;3.75;1.70;;;22.20;97.00;;;;;;4171955;28;20037;-67
2022/08/30 08:43:13;;;;;;;4.35;2.00;;;22.20;96.90;;;;;;4172447;28;20037;-67
2022/08/30 08:45:37;;;;;;;2.33;1.58;;;22.10;96.70;;;;;;4171941;28;20044;-66
2022/08/30 08:47:54;;;;;;;3.47;2.03;;;22.20;96.80;;;;;;4173359;28;20040;-66
2022/08/30 08:49:59;;;;;;;5.25;2.10;;;22.30;96.60;;;;;;4170242;28;20045;-67
2022/08/30 08:54:56;;;;;;;2.10;1.50;;;22.30;96.40;;;;;;4173848;28;20045;-66
2022/08/30 08:56:58;;;;;;;2.88;1.38;;;22.30;96.60;;;;;;4164307;28;20029;-66
2022/08/30 08:58:59;;;;;;;3.15;1.70;;;22.40;97.40;;;;;;4170999;28;20037;-66
2022/08/30 09:01:00;;;;;;;2.25;1.33;;;22.50;96.40;;;;;;4173345;28;20401;-66
2022/08/30 09:03:03;;;;;;;1.98;1.20;;;22.60;96.40;;;;;;4174352;28;20445;-67
2022/08/30 09:05:04;;;;;;;2.05;1.45;;;22.70;96.10;;;;;;4173940;28;20116;-66
2022/08/30 09:07:19;;;;;;;2.13;1.50;;;22.80;95.80;;;;;;4173109;28;20040;-66
2022/08/30 09:09:26;;;;;;;4.68;1.17;;;22.90;95.50;;;;;;4172288;28;20025;-66
2022/08/30 09:11:29;;;;;;;3.70;1.20;;;23.10;95.80;;;;;;4172103;28;20036;-66
2022/08/30 09:13:30;;;;;;;3.20;1.70;;;23.20;95.60;;;;;;4188130;28;20063;-66
2022/08/30 09:15:33;;;;;;;3.05;1.38;;;23.30;94.90;;;;;;4168094;28;20049;-66
2022/08/30 09:18:05;;;;;;;5.72;1.73;;;23.40;96.00;;;;;;4169761;28;20052;-66
2022/08/30 09:20:06;;;;;;;2.25;1.30;;;23.40;95.70;;;;;;4172837;28;20390;-66
2022/08/30 09:22:36;;;;;;;2.22;1.30;;;23.50;94.80;;;;;;4173950;28;20041;-66
2022/08/30 09:24:46;;;;;;;3.85;1.70;;;23.70;94.20;;;;;;4172795;28;20565;-65
2022/08/30 09:26:47;;;;;;;2.22;1.55;;;23.60;93.70;;;;;;4173434;28;20033;-67
2022/08/30 09:28:50;;;;;;;4.32;1.63;;;23.60;93.70;;;;;;4172589;28;20045;-66
2022/08/30 09:31:18;;;;;;;3.70;2.00;;;23.50;93.80;;;;;;4172553;28;20545;-66
2022/08/30 09:33:19;;;;;;;2.55;1.50;;;23.60;93.80;;;;;;4170656;28;20028;-66
2022/08/30 09:35:33;;;;;;;3.03;1.60;;;23.70;96.00;;;;;;4173782;28;20044;-66
2022/08/30 09:37:44;;;;;;;2.13;1.23;;;23.80;95.80;;;;;;4172936;28;20047;-66
2022/08/30 09:39:45;;;;;;;4.35;1.67;;;24.00;95.00;;;;;;4172502;28;20040;-66
2022/08/30 09:41:48;;;;;;;4.60;2.35;;;24.00;93.10;;;;;;4173176;28;20037;-66
2022/08/30 09:44:23;;;;;;;3.33;1.73;;;23.80;92.90;;;;;;4173784;28;20064;-66
2022/08/30 09:46:24;;;;;;;3.35;1.98;;;23.90;92.80;;;;;;4171997;28;20135;-66
2022/08/30 09:48:43;;;;;;;5.82;2.00;;;23.80;92.70;;;;;;4174039;28;20481;-66
2022/08/30 09:50:45;;;;;;;4.15;1.80;;;23.80;93.10;;;;;;4172873;28;20061;-66
2022/08/30 09:52:56;;;;;;;3.80;1.65;;;23.90;92.60;;;;;;4172650;28;20048;-66
2022/08/30 09:55:45;;;;;;;4.35;1.77;;;23.90;92.60;;;;;;4174022;28;20481;-67
2022/08/30 09:58:15;;;;;;;2.17;1.27;;;24.00;92.40;;;;;;4172544;28;20046;-66
2022/08/30 10:00:20;;;;;;;6.75;2.22;;;24.00;92.10;;;;;;4204396;28;20032;-66
2022/08/30 10:02:31;;;;;;;1.80;1.48;;;24.10;92.00;;;;;;4173700;28;20025;-66
2022/08/30 10:05:10;;;;;;;4.97;1.60;;;24.10;92.00;;;;;;4172512;28;20037;-66
2022/08/30 10:07:35;;;;;;;3.05;1.73;;;24.20;91.80;;;;;;4170226;28;20494;-66
2022/08/30 10:09:53;;;;;;;2.97;1.40;;;24.30;92.50;;;;;;4173439;28;20565;-66
2022/08/30 10:12:11;;;;;;;3.80;1.50;;;24.30;91.50;;;;;;4175652;28;20505;-66
2022/08/30 10:14:40;;;;;;;1.88;1.45;;;24.40;91.60;;;;;;4176857;28;20448;-66
2022/08/30 10:17:02;;;;;;;1.45;1.30;;;24.50;91.10;;;;;;4174964;28;20044;-66
2022/08/30 10:19:21;;;;;;;2.67;1.03;;;24.60;93.10;;;;;;4175838;28;20048;-66
2022/08/30 10:21:28;;;;;;;1.63;0.98;;;24.70;91.30;;;;;;4174903;28;20275;-66
2022/08/30 10:23:34;;;;;;;3.00;1.20;;;24.70;90.40;;;;;;4175100;28;20047;-66
2022/08/30 10:25:43;;;;;;;2.22;1.30;;;24.60;90.00;;;;;;4173842;28;20056;-67
2022/08/30 10:27:57;;;;;;;3.65;1.50;;;24.60;90.60;;;;;;4174457;28;20035;-66
2022/08/30 10:30:09;;;;;;;2.35;1.10;;;24.60;90.20;;;;;;4177264;28;20090;-67
2022/08/30 10:32:19;;;;;;;3.22;1.15;;;24.60;90.60;;;;;;4173453;28;20033;-66
2022/08/30 10:34:49;;;;;;;3.85;1.08;;;24.50;90.60;;;;;;4176861;28;20041;-66
2022/08/30 10:37:22;;;;;;;2.97;1.20;;;24.40;90.50;;;;;;4175364;28;20044;-66
2022/08/30 10:39:27;;;;;;;2.35;1.50;;;24.60;90.40;;;;;;4174916;28;20037;-66
2022/08/30 10:41:31;;;;;;;3.53;1.27;;;24.60;90.40;;;;;;4176349;28;20025;-66
2022/08/30 10:44:01;;;;;;;1.75;0.90;;;24.70;90.40;;;;;;4175151;28;20045;-66
2022/08/30 10:46:08;;;;;;;2.50;1.30;;;24.80;90.40;;;;;;4175483;28;20029;-66
2022/08/30 10:48:42;;;;;;;2.17;1.35;;;24.80;89.70;;;;;;4177011;28;20040;-66
2022/08/30 10:50:52;;;;;;;2.08;1.35;;;24.90;89.50;;;;;;4177775;28;20040;-66